Terminal Aerodrome Forecast
Issued by NWS Atlanta, GA

Home | Current Version | Previous Version | Text Only | Print | Product List | Glossary On
Versions: 1 2 3 4 5 6 7 8 9 10 11 12 13 14 15 16 17 18 19 20 21 22 23 24 25 26 27 28 29 30 31 32 33 34 35 36 37 38 39
007
FTUS42 KFFC 010716 AAA
TAFAHN
TAF AMD
KAHN 010716Z 0107/0206 VRB03KT P6SM FEW015 BKN020
      TEMPO 0108/0109 VRB10G15KT 3SM -TSRA BKN035CB
     FM010900 13005KT P6SM OVC015
     FM011200 14004KT P6SM BKN009
     FM011400 21006KT P6SM VCSH BKN012
     FM012000 23009KT 4SM -TSRA BKN030CB=

USA.gov is the U.S. government's official web portal to all federal, state and local government web resources and services.